createdAt,value
2017-05-06T00:00:30.225Z,33.83
2017-05-06T00:01:30.228Z,33.73
2017-05-06T00:02:29.928Z,33.83
2017-05-06T00:03:30.245Z,33.83
2017-05-06T00:04:30.254Z,33.83
2017-05-06T00:05:29.947Z,33.92
2017-05-06T00:06:30.265Z,33.83
2017-05-06T00:07:30.009Z,33.92
2017-05-06T00:08:29.967Z,33.83
2017-05-06T00:09:30.284Z,33.92
2017-05-06T00:10:30.289Z,33.92
2017-05-06T00:11:30.293Z,33.83
2017-05-06T00:12:29.992Z,33.63
2017-05-06T00:13:30.311Z,33.83
2017-05-06T00:14:30.316Z,33.83
2017-05-06T00:15:30.012Z,33.92
2017-05-06T00:16:30.331Z,34.02
2017-05-06T00:17:30.335Z,33.63
2017-05-06T00:18:30.341Z,33.92
2017-05-06T00:19:30.347Z,33.92
2017-05-06T00:20:30.047Z,33.92
2017-05-06T00:21:30.411Z,33.92
2017-05-06T00:22:30.417Z,33.83
2017-05-06T00:23:30.376Z,34.02
2017-05-06T00:24:30.383Z,33.63
2017-05-06T00:25:30.389Z,33.63
2017-05-06T00:26:30.450Z,33.73
2017-05-06T00:27:30.452Z,33.73
2017-05-06T00:28:30.406Z,33.34
2017-05-06T00:29:30.103Z,33.92
2017-05-06T00:30:30.421Z,33.92
2017-05-06T00:31:30.429Z,33.54
2017-05-06T00:32:30.436Z,33.54
2017-05-06T00:33:30.439Z,33.63
2017-05-06T00:34:30.457Z,33.63
2017-05-06T00:35:30.143Z,33.25
2017-05-06T00:36:30.452Z,33.44
2017-05-06T00:37:30.208Z,33.44
2017-05-06T00:38:30.261Z,33.44
2017-05-06T00:39:30.479Z,33.34
2017-05-06T00:40:30.518Z,33.44
2017-05-06T00:41:30.492Z,33.44
2017-05-06T00:42:30.551Z,33.44
2017-05-06T00:43:30.194Z,33.25
2017-05-06T00:44:30.515Z,33.63
2017-05-06T00:45:30.521Z,33.63
2017-05-06T00:46:30.527Z,33.44
2017-05-06T00:47:30.533Z,33.44
2017-05-06T00:48:30.536Z,33.63
2017-05-06T00:49:30.547Z,33.25
2017-05-06T00:50:30.550Z,33.54
2017-05-06T00:51:30.557Z,33.34
2017-05-06T00:52:30.563Z,33.44
2017-05-06T00:53:30.621Z,33.25
2017-05-06T00:54:30.579Z,33.63
2017-05-06T00:55:30.278Z,33.44
2017-05-06T00:56:30.589Z,33.44
2017-05-06T00:57:30.650Z,33.73
2017-05-06T00:58:30.654Z,33.44
2017-05-06T00:59:30.660Z,33.63
2017-05-06T01:00:30.617Z,33.44
2017-05-06T01:01:30.623Z,33.44
2017-05-06T01:02:30.631Z,33.44
2017-05-06T01:03:30.644Z,33.25
2017-05-06T01:04:30.331Z,33.44
2017-05-06T01:05:30.648Z,33.25
2017-05-06T01:06:30.754Z,33.25
2017-05-06T01:07:30.660Z,33.44
2017-05-06T01:08:30.413Z,33.44
2017-05-06T01:09:30.681Z,33.63
2017-05-06T01:10:30.681Z,33.44
2017-05-06T01:11:30.693Z,33.44
2017-05-06T01:12:30.417Z,33.54
2017-05-06T01:13:30.706Z,33.63
2017-05-06T01:14:30.805Z,33.54
2017-05-06T01:15:30.713Z,33.63
2017-05-06T01:16:30.719Z,33.54
2017-05-06T01:17:30.727Z,33.44
2017-05-06T01:18:30.732Z,33.54
2017-05-06T01:19:30.744Z,33.63
2017-05-06T01:20:30.746Z,33.25
2017-05-06T01:21:30.492Z,33.63
2017-05-06T01:22:30.761Z,33.62
2017-05-06T01:23:30.767Z,33.44
2017-05-06T01:24:30.771Z,33.44
2017-05-06T01:25:30.776Z,33.44
2017-05-06T01:26:30.785Z,33.54
2017-05-06T01:27:30.846Z,33.63
2017-05-06T01:28:30.797Z,33.25
2017-05-06T01:29:30.857Z,33.34
2017-05-06T01:30:30.810Z,33.25
2017-05-06T01:31:30.817Z,33.34
2017-05-06T01:32:30.875Z,33.63
2017-05-06T01:33:30.831Z,33.44
2017-05-06T01:34:30.837Z,33.42
2017-05-06T01:35:30.532Z,33.44
2017-05-06T01:36:30.851Z,33.52
2017-05-06T01:37:30.854Z,33.25
2017-05-06T01:38:30.865Z,33.63
2017-05-06T01:39:30.868Z,33.54
2017-05-06T01:40:30.928Z,33.54
2017-05-06T01:41:30.571Z,33.63
2017-05-06T01:42:30.918Z,33.63
2017-05-06T01:43:30.584Z,33.54
2017-05-06T01:44:30.902Z,33.05
2017-05-06T01:45:30.909Z,33.73
2017-05-06T01:46:30.915Z,33.25
2017-05-06T01:47:30.923Z,33.25
2017-05-06T01:48:30.930Z,33.23
2017-05-06T01:49:30.982Z,33.05
2017-05-06T01:50:30.939Z,33.44
2017-05-06T01:51:30.946Z,33.54
2017-05-06T01:52:31.004Z,33.25
2017-05-06T01:53:30.962Z,33.25
2017-05-06T01:54:30.705Z,33.54
2017-05-06T01:55:30.972Z,33.54
2017-05-06T01:56:31.029Z,33.73
2017-05-06T01:57:30.986Z,33.25
2017-05-06T01:58:30.996Z,33.25
2017-05-06T01:59:31.000Z,33.25
2017-05-06T02:00:31.003Z,33.44
2017-05-06T02:01:31.010Z,33.25
2017-05-06T02:02:31.024Z,33.25
2017-05-06T02:03:31.024Z,33.05
2017-05-06T02:04:31.031Z,33.05
2017-05-06T02:05:31.039Z,33.04
2017-05-06T02:06:31.033Z,33.33
2017-05-06T02:07:31.050Z,33.25
2017-05-06T02:08:31.054Z,33.04
2017-05-06T02:09:31.062Z,33.34
2017-05-06T02:10:30.760Z,33.33
2017-05-06T02:11:31.079Z,33.15
2017-05-06T02:12:31.082Z,33.44
2017-05-06T02:13:31.090Z,33.44
2017-05-06T02:14:31.095Z,33.44
2017-05-06T02:15:31.099Z,33.15
2017-05-06T02:16:30.795Z,33.25
2017-05-06T02:17:31.113Z,33.15
2017-05-06T02:18:31.118Z,33.63
2017-05-06T02:19:31.126Z,33.05
2017-05-06T02:20:31.212Z,33.33
2017-05-06T02:21:30.830Z,33.34
2017-05-06T02:22:31.144Z,33.05
2017-05-06T02:23:31.151Z,32.96
2017-05-06T02:24:31.155Z,33.25
2017-05-06T02:25:31.166Z,33.14
2017-05-06T02:26:31.173Z,33.34
2017-05-06T02:27:31.252Z,32.96
2017-05-06T02:28:31.185Z,32.96
2017-05-06T02:29:31.246Z,33.34
2017-05-06T02:30:31.199Z,33.34
2017-05-06T02:31:31.209Z,33.14
2017-05-06T02:32:30.896Z,33.44
2017-05-06T02:33:31.264Z,32.94
2017-05-06T02:34:30.912Z,33.25
2017-05-06T02:35:31.229Z,33.05
2017-05-06T02:36:31.235Z,33.05
2017-05-06T02:37:31.242Z,33.15
2017-05-06T02:38:31.298Z,33.15
2017-05-06T02:39:31.253Z,33.05
2017-05-06T02:40:30.950Z,33.44
2017-05-06T02:41:31.317Z,32.86
2017-05-06T02:42:31.273Z,32.96
2017-05-06T02:43:31.278Z,33.15
2017-05-06T02:44:30.975Z,32.96
2017-05-06T02:45:31.296Z,32.96
2017-05-06T02:46:31.298Z,33.15
2017-05-06T02:47:31.354Z,33.15
2017-05-06T02:48:31.310Z,33.15
2017-05-06T02:49:31.319Z,33.25
2017-05-06T02:50:31.325Z,33.15
2017-05-06T02:51:31.332Z,33.25
2017-05-06T02:52:31.075Z,33.05
2017-05-06T02:53:31.034Z,33.15
2017-05-06T02:54:31.402Z,32.86
2017-05-06T02:55:31.043Z,33.05
2017-05-06T02:56:31.366Z,32.76
2017-05-06T02:57:31.373Z,32.76
2017-05-06T02:58:31.376Z,32.76
2017-05-06T02:59:31.070Z,33.05
2017-05-06T03:00:31.389Z,32.76
2017-05-06T03:01:31.085Z,32.86
2017-05-06T03:02:31.403Z,32.86
2017-05-06T03:03:31.409Z,32.86
2017-05-06T03:04:31.415Z,32.86
2017-05-06T03:05:31.420Z,32.96
2017-05-06T03:06:31.114Z,32.67
2017-05-06T03:07:31.121Z,32.86
2017-05-06T03:08:31.130Z,32.67
2017-05-06T03:09:31.446Z,32.76
2017-05-06T03:10:31.455Z,32.86
2017-05-06T03:11:31.459Z,32.96
2017-05-06T03:12:31.466Z,32.86
2017-05-06T03:13:31.211Z,32.96
2017-05-06T03:14:31.577Z,32.57
2017-05-06T03:15:31.486Z,32.67
2017-05-06T03:16:31.489Z,32.67
2017-05-06T03:17:31.495Z,32.76
2017-05-06T03:18:31.504Z,32.57
2017-05-06T03:19:31.510Z,32.86
2017-05-06T03:20:31.517Z,32.76
2017-05-06T03:21:31.521Z,32.76
2017-05-06T03:22:31.577Z,32.76
2017-05-06T03:23:31.536Z,32.67
2017-05-06T03:24:31.540Z,32.76
2017-05-06T03:25:31.573Z,32.76
2017-05-06T03:26:31.563Z,32.86
2017-05-06T03:27:31.561Z,32.86
2017-05-06T03:28:31.567Z,32.76
2017-05-06T03:29:31.573Z,32.57
2017-05-06T03:30:31.578Z,32.57
2017-05-06T03:31:31.586Z,32.76
2017-05-06T03:32:31.593Z,32.67
2017-05-06T03:33:31.599Z,32.67
2017-05-06T03:34:31.296Z,32.57
2017-05-06T03:35:31.611Z,32.57
2017-05-06T03:36:31.616Z,32.67
2017-05-06T03:37:31.622Z,32.67
2017-05-06T03:38:31.321Z,32.38
2017-05-06T03:39:31.639Z,32.47
2017-05-06T03:40:31.641Z,32.47
2017-05-06T03:41:31.646Z,32.57
2017-05-06T03:42:31.656Z,32.47
2017-05-06T03:43:31.659Z,32.57
2017-05-06T03:44:31.669Z,32.67
2017-05-06T03:45:31.674Z,32.57
2017-05-06T03:46:31.680Z,32.67
2017-05-06T03:47:31.686Z,32.57
2017-05-06T03:48:31.695Z,32.57
2017-05-06T03:49:31.698Z,32.47
2017-05-06T03:50:31.704Z,32.47
2017-05-06T03:51:31.762Z,32.57
2017-05-06T03:52:31.765Z,32.47
2017-05-06T03:53:31.776Z,32.47
2017-05-06T03:54:31.730Z,32.67
2017-05-06T03:55:31.736Z,32.47
2017-05-06T03:56:31.745Z,32.47
2017-05-06T03:57:31.749Z,32.49
2017-05-06T03:58:31.447Z,32.47
2017-05-06T03:59:31.766Z,32.38
2017-05-06T04:00:31.768Z,32.28
2017-05-06T04:01:31.775Z,32.47
2017-05-06T04:02:31.471Z,32.38
2017-05-06T04:03:31.526Z,32.28
2017-05-06T04:04:31.484Z,32.38
2017-05-06T04:05:31.850Z,32.38
2017-05-06T04:06:31.806Z,32.38
2017-05-06T04:07:31.814Z,32.18
2017-05-06T04:08:31.820Z,32.38
2017-05-06T04:09:31.824Z,32.38
2017-05-06T04:10:31.831Z,32.18
2017-05-06T04:11:31.528Z,32.28
2017-05-06T04:12:31.532Z,32.38
2017-05-06T04:13:31.848Z,32.2
2017-05-06T04:14:31.906Z,32.29
2017-05-06T04:15:31.918Z,32.1
2017-05-06T04:16:31.867Z,32.39
2017-05-06T04:17:31.874Z,32.1
2017-05-06T04:18:31.930Z,32.18
2017-05-06T04:19:31.603Z,32.09
2017-05-06T04:20:31.944Z,32.28
2017-05-06T04:21:31.589Z,32.29
2017-05-06T04:22:31.596Z,32.09
2017-05-06T04:23:31.601Z,32.09
2017-05-06T04:24:31.969Z,32.18
2017-05-06T04:25:32.225Z,32.09
2017-05-06T04:26:31.933Z,32.1
2017-05-06T04:27:31.936Z,32.18
2017-05-06T04:28:31.635Z,32.09
2017-05-06T04:29:31.641Z,32.2
2017-05-06T04:30:32.007Z,32.2
2017-05-06T04:31:31.653Z,32.38
2017-05-06T04:32:31.664Z,32.18
2017-05-06T04:33:31.978Z,32.1
2017-05-06T04:34:32.034Z,32.28
2017-05-06T04:35:32.038Z,32.28
2017-05-06T04:36:31.734Z,32.28
2017-05-06T04:37:31.691Z,32.28
2017-05-06T04:38:32.007Z,32.28
2017-05-06T04:39:31.703Z,32.09
2017-05-06T04:40:31.711Z,32.09
2017-05-06T04:41:31.720Z,32.09
2017-05-06T04:42:32.087Z,32.09
2017-05-06T04:43:31.781Z,32.18
2017-05-06T04:44:32.052Z,32.18
2017-05-06T04:45:32.053Z,32.18
2017-05-06T04:46:32.059Z,32.18
2017-05-06T04:47:32.067Z,32.18
2017-05-06T04:48:31.761Z,32.18
2017-05-06T04:49:32.079Z,32.1
2017-05-06T04:50:32.084Z,32.18
2017-05-06T04:51:32.091Z,32.18
2017-05-06T04:52:32.097Z,32.09
2017-05-06T04:53:32.102Z,32.18
2017-05-06T04:54:31.801Z,32.09
2017-05-06T04:55:31.806Z,32.18
2017-05-06T04:56:32.123Z,32.18
2017-05-06T04:57:31.817Z,32.18
2017-05-06T04:58:32.136Z,32.09
2017-05-06T04:59:32.142Z,32.18
2017-05-06T05:00:32.151Z,32.28
2017-05-06T05:01:31.897Z,31.99
2017-05-06T05:02:31.852Z,31.99
2017-05-06T05:03:32.168Z,32.28
2017-05-06T05:04:32.200Z,32.09
2017-05-06T05:05:32.179Z,32.09
2017-05-06T05:06:32.186Z,32.09
2017-05-06T05:07:32.192Z,32.09
2017-05-06T05:08:32.200Z,31.99
2017-05-06T05:09:32.209Z,32.18
2017-05-06T05:10:32.261Z,32.1
2017-05-06T05:11:32.266Z,32.28
2017-05-06T05:12:32.222Z,32.18
2017-05-06T05:13:32.281Z,32.18
2017-05-06T05:14:32.263Z,32.09
2017-05-06T05:15:32.242Z,32.28
2017-05-06T05:16:32.249Z,32.09
2017-05-06T05:17:32.258Z,32.09
2017-05-06T05:18:32.311Z,32.28
2017-05-06T05:19:32.269Z,32.18
2017-05-06T05:20:32.325Z,32.18
2017-05-06T05:21:32.281Z,32.18
2017-05-06T05:22:32.287Z,32.18
2017-05-06T05:23:32.292Z,31.99
2017-05-06T05:24:32.041Z,32.18
2017-05-06T05:25:32.306Z,32.09
2017-05-06T05:26:32.320Z,31.8
2017-05-06T05:27:32.317Z,31.99
2017-05-06T05:28:32.326Z,31.99
2017-05-06T05:29:32.380Z,32.28
2017-05-06T05:30:32.388Z,32.28
2017-05-06T05:31:32.394Z,31.99
2017-05-06T05:32:32.351Z,31.99
2017-05-06T05:33:32.410Z,32.09
2017-05-06T05:34:32.412Z,32.09
2017-05-06T05:35:32.405Z,32.09
2017-05-06T05:36:32.376Z,32.09
2017-05-06T05:37:32.388Z,32.09
2017-05-06T05:38:32.077Z,32.18
2017-05-06T05:39:32.398Z,32.09
2017-05-06T05:40:32.173Z,32.28
2017-05-06T05:41:32.408Z,31.99
2017-05-06T05:42:32.415Z,32.18
2017-05-06T05:43:32.421Z,32.18
2017-05-06T05:44:32.426Z,32.09
2017-05-06T05:45:32.434Z,32.09
2017-05-06T05:46:32.492Z,32.18
2017-05-06T05:47:32.445Z,32.18
2017-05-06T05:48:32.453Z,32.09
2017-05-06T05:49:32.459Z,32.09
2017-05-06T05:50:32.466Z,32.09
2017-05-06T05:51:32.468Z,32.18
2017-05-06T05:52:32.220Z,32.28
2017-05-06T05:53:32.228Z,31.89
2017-05-06T05:54:32.489Z,32.18
2017-05-06T05:55:32.497Z,32.09
2017-05-06T05:56:32.557Z,32.09
2017-05-06T05:57:32.564Z,32.18
2017-05-06T05:58:32.565Z,32.09
2017-05-06T05:59:32.521Z,32.28
2017-05-06T06:00:32.527Z,32.09
2017-05-06T06:01:32.536Z,32.28
2017-05-06T06:02:32.543Z,32.18
2017-05-06T06:03:32.554Z,32.18
2017-05-06T06:04:32.556Z,32.28
2017-05-06T06:05:32.614Z,32.18
2017-05-06T06:06:32.261Z,32.18
2017-05-06T06:07:32.626Z,32.18
2017-05-06T06:08:32.583Z,32.18
2017-05-06T06:09:32.586Z,32.18
2017-05-06T06:10:32.643Z,32.38
2017-05-06T06:11:32.601Z,32.28
2017-05-06T06:12:32.348Z,32.28
2017-05-06T06:13:32.663Z,32.09
2017-05-06T06:14:32.619Z,32.28
2017-05-06T06:15:32.626Z,32.18
2017-05-06T06:16:32.631Z,32.09
2017-05-06T06:17:32.638Z,32.18
2017-05-06T06:18:32.337Z,32.28
2017-05-06T06:19:32.655Z,32.38
2017-05-06T06:20:32.348Z,32.38
2017-05-06T06:21:32.352Z,32.28
2017-05-06T06:22:32.671Z,32.28
2017-05-06T06:23:32.677Z,32.28
2017-05-06T06:24:32.374Z,32.18
2017-05-06T06:25:32.739Z,32.38
2017-05-06T06:26:32.387Z,32.28
2017-05-06T06:27:32.749Z,32.09
2017-05-06T06:28:32.397Z,32.09
2017-05-06T06:29:32.721Z,32.28
2017-05-06T06:30:32.412Z,32.28
2017-05-06T06:31:32.729Z,31.99
2017-05-06T06:32:32.735Z,31.89
2017-05-06T06:33:32.530Z,31.99
2017-05-06T06:34:32.748Z,32.09
2017-05-06T06:35:32.807Z,31.8
2017-05-06T06:36:32.811Z,31.89
2017-05-06T06:37:32.769Z,31.8
2017-05-06T06:38:32.774Z,31.8
2017-05-06T06:39:32.833Z,31.7
2017-05-06T06:40:32.786Z,31.71
2017-05-06T06:41:32.793Z,31.52
2017-05-06T06:42:32.489Z,31.33
2017-05-06T06:43:32.806Z,31.23
2017-05-06T06:44:32.553Z,30.94
2017-05-06T06:45:32.821Z,30.08
2017-05-06T06:46:32.826Z,30.49
2017-05-06T06:47:32.834Z,30.28
2017-05-06T06:48:32.843Z,29.34
2017-05-06T06:49:32.900Z,27.03
2017-05-06T06:50:32.855Z,26.4
2017-05-06T06:51:32.864Z,25.14
2017-05-06T06:52:32.921Z,24.4
2017-05-06T06:53:32.564Z,23.45
2017-05-06T06:54:32.887Z,22.3
2017-05-06T06:55:32.899Z,21.92
2017-05-06T06:56:32.591Z,20.86
2017-05-06T06:57:32.911Z,21.25
2017-05-06T06:58:32.920Z,20.78
2017-05-06T06:59:32.979Z,20.4
2017-05-06T07:00:32.990Z,20.1
2017-05-06T07:01:32.638Z,19.73
2017-05-06T07:02:32.648Z,19.92
2017-05-06T07:03:32.967Z,19.92
2017-05-06T07:04:32.668Z,19.83
2017-05-06T07:05:32.674Z,20.02
2017-05-06T07:06:32.996Z,20.03
2017-05-06T07:07:33.007Z,19.93
2017-05-06T07:08:33.016Z,19.24
2017-05-06T07:09:32.768Z,19.93
2017-05-06T07:10:33.040Z,19.92
2017-05-06T07:11:32.734Z,19.24
2017-05-06T07:12:32.748Z,19.44
2017-05-06T07:13:33.074Z,18.77
2017-05-06T07:14:32.769Z,19.06
2017-05-06T07:15:33.091Z,18.87
2017-05-06T07:16:33.100Z,19.26
2017-05-06T07:17:33.113Z,19.45
2017-05-06T07:18:33.173Z,19.64
2017-05-06T07:19:33.132Z,19.83
2017-05-06T07:20:33.131Z,21.86
2017-05-06T07:21:32.843Z,24.73
2017-05-06T07:22:32.853Z,27.78
2017-05-06T07:23:33.229Z,28.02
2017-05-06T07:24:32.877Z,29.16
2017-05-06T07:25:32.934Z,29.63
2017-05-06T07:26:33.199Z,30.11
2017-05-06T07:27:32.900Z,30
2017-05-06T07:28:33.221Z,30.39
2017-05-06T07:29:32.919Z,30.1
2017-05-06T07:30:33.287Z,30.1
2017-05-06T07:31:32.940Z,30
2017-05-06T07:32:33.255Z,30
2017-05-06T07:33:33.262Z,29.61
2017-05-06T07:34:33.370Z,29.71
2017-05-06T07:35:33.279Z,29.44
2017-05-06T07:36:33.287Z,29.44
2017-05-06T07:37:33.292Z,29.05
2017-05-06T07:38:33.299Z,29.24
2017-05-06T07:39:33.311Z,29.24
2017-05-06T07:40:33.010Z,29.06
2017-05-06T07:41:33.322Z,28.77
2017-05-06T07:42:33.330Z,28.49
2017-05-06T07:43:33.341Z,27.81
2017-05-06T07:44:33.396Z,28.39
2017-05-06T07:45:33.353Z,28.2
2017-05-06T07:46:33.364Z,28.3
2017-05-06T07:47:33.056Z,28.3
2017-05-06T07:48:33.377Z,28.69
2017-05-06T07:49:33.382Z,28.68
2017-05-06T07:50:33.393Z,28.77
2017-05-06T07:51:33.400Z,28.11
2017-05-06T07:52:33.403Z,28.3
2017-05-06T07:53:33.413Z,28.69
2017-05-06T07:54:33.108Z,28.97
2017-05-06T07:55:33.426Z,28.3
2017-05-06T07:56:33.435Z,28.11
2017-05-06T07:57:33.441Z,28.2
2017-05-06T07:58:33.136Z,28.3
2017-05-06T07:59:33.506Z,28.2
2017-05-06T08:00:33.461Z,28.2
2017-05-06T08:01:33.770Z,28.3
2017-05-06T08:02:33.475Z,29.17
2017-05-06T08:03:33.483Z,29.08
2017-05-06T08:04:33.495Z,29.16
2017-05-06T08:05:33.497Z,28.98
2017-05-06T08:06:33.505Z,28.98
2017-05-06T08:07:33.202Z,28.89
2017-05-06T08:08:33.520Z,28.98
2017-05-06T08:09:33.531Z,29.37
2017-05-06T08:10:33.223Z,29.08
2017-05-06T08:11:33.231Z,29.94
2017-05-06T08:12:33.600Z,30.13
2017-05-06T08:13:33.559Z,29.46
2017-05-06T08:14:33.563Z,29.55
2017-05-06T08:15:33.568Z,29.47
2017-05-06T08:16:33.627Z,29.47
2017-05-06T08:17:33.588Z,30.13
2017-05-06T08:18:33.591Z,29.84
2017-05-06T08:19:33.598Z,29.94
2017-05-06T08:20:33.608Z,30.23
2017-05-06T08:21:33.614Z,30.32
2017-05-06T08:22:33.623Z,30.13
2017-05-06T08:23:33.317Z,29.94
2017-05-06T08:24:33.683Z,29.94
2017-05-06T08:25:33.642Z,30.13
2017-05-06T08:26:33.389Z,30.13
2017-05-06T08:27:33.655Z,30.13
2017-05-06T08:28:33.662Z,30.32
2017-05-06T08:29:33.385Z,30.32
2017-05-06T08:30:33.367Z,29.64
2017-05-06T08:31:33.423Z,30.71
2017-05-06T08:32:33.691Z,30.51
2017-05-06T08:33:33.702Z,30.51
2017-05-06T08:34:33.706Z,31.18
2017-05-06T08:35:33.761Z,30.89
2017-05-06T08:36:33.767Z,30.89
2017-05-06T08:37:33.414Z,31.18
2017-05-06T08:38:33.734Z,31.47
2017-05-06T08:39:33.739Z,31.65
2017-05-06T08:40:33.435Z,31.84
2017-05-06T08:41:33.754Z,31.84
2017-05-06T08:42:33.763Z,32.04
2017-05-06T08:43:33.459Z,32.62
2017-05-06T08:44:33.767Z,34.62
2017-05-06T08:45:33.775Z,34.68
2017-05-06T08:46:33.789Z,35.06
2017-05-06T08:47:33.830Z,36.52
2017-05-06T08:48:33.789Z,36.4
2017-05-06T08:49:33.479Z,36.67
2017-05-06T08:50:33.800Z,36.96
2017-05-06T08:51:33.797Z,36.01
2017-05-06T08:52:33.792Z,36.79
2017-05-06T08:53:33.795Z,37.15
2017-05-06T08:54:33.844Z,37.45
2017-05-06T08:55:33.484Z,37.83
2017-05-06T08:56:33.796Z,37.83
2017-05-06T08:57:33.797Z,37.73
2017-05-06T08:58:33.800Z,37.65
2017-05-06T08:59:33.801Z,36.87
2017-05-06T09:00:33.856Z,36.96
2017-05-06T09:01:33.804Z,37.35
2017-05-06T09:02:33.493Z,37.54
2017-05-06T09:03:33.809Z,37.25
2017-05-06T09:04:33.812Z,37.85
2017-05-06T09:05:33.862Z,36.67
2017-05-06T09:06:33.569Z,36.79
2017-05-06T09:07:33.816Z,36.4
2017-05-06T09:08:33.866Z,36.32
2017-05-06T09:09:33.508Z,35.16
2017-05-06T09:10:33.874Z,35.08
2017-05-06T09:11:33.830Z,34.99
2017-05-06T09:12:33.569Z,34.99
2017-05-06T09:13:33.525Z,34.23
2017-05-06T09:14:33.843Z,33.94
2017-05-06T09:15:33.897Z,34.34
2017-05-06T09:16:33.853Z,34.33
2017-05-06T09:17:33.907Z,34.52
2017-05-06T09:18:33.865Z,34.13
2017-05-06T09:19:33.923Z,34.04
2017-05-06T09:20:33.875Z,33.84
2017-05-06T09:21:33.878Z,34.33
2017-05-06T09:22:33.936Z,33.84
2017-05-06T09:23:33.891Z,33.86
2017-05-06T09:24:33.896Z,34.05
2017-05-06T09:25:33.953Z,33.86
2017-05-06T09:26:33.959Z,33.86
2017-05-06T09:27:33.965Z,33.76
2017-05-06T09:28:33.924Z,34.34
2017-05-06T09:29:33.928Z,34.15
2017-05-06T09:30:33.934Z,34.15
2017-05-06T09:31:33.943Z,34.15
2017-05-06T09:32:33.635Z,34.15
2017-05-06T09:33:33.951Z,33.95
2017-05-06T09:34:33.647Z,33.67
2017-05-06T09:35:33.971Z,33.67
2017-05-06T09:36:33.971Z,33.76
2017-05-06T09:37:33.977Z,34.05
2017-05-06T09:38:34.032Z,33.95
2017-05-06T09:39:33.990Z,33.47
2017-05-06T09:40:33.734Z,33.57
2017-05-06T09:41:33.695Z,33.28
2017-05-06T09:42:34.009Z,33.37
2017-05-06T09:43:34.017Z,33.57
2017-05-06T09:44:34.073Z,33.37
2017-05-06T09:45:34.030Z,33.95
2017-05-06T09:46:34.086Z,33.76
2017-05-06T09:47:34.045Z,33.95
2017-05-06T09:48:34.050Z,33.76
2017-05-06T09:49:34.056Z,33.86
2017-05-06T09:50:34.079Z,34.44
2017-05-06T09:51:34.071Z,33.86
2017-05-06T09:52:34.077Z,34.05
2017-05-06T09:53:33.772Z,33.67
2017-05-06T09:54:34.089Z,33.86
2017-05-06T09:55:34.099Z,33.76
2017-05-06T09:56:34.105Z,33.76
2017-05-06T09:57:34.111Z,34.34
2017-05-06T09:58:34.122Z,34.15
2017-05-06T09:59:33.840Z,34.25
2017-05-06T10:00:34.135Z,33.86
2017-05-06T10:01:34.186Z,33.76
2017-05-06T10:02:34.145Z,33.86
2017-05-06T10:03:34.151Z,34.15
2017-05-06T10:04:34.156Z,34.15
2017-05-06T10:05:34.223Z,33.67
2017-05-06T10:06:34.168Z,34.05
2017-05-06T10:07:33.916Z,33.87
2017-05-06T10:08:34.185Z,33.86
2017-05-06T10:09:34.192Z,33.78
2017-05-06T10:10:34.199Z,34.07
2017-05-06T10:11:34.210Z,33.97
2017-05-06T10:12:33.953Z,33.76
2017-05-06T10:13:33.909Z,33.76
2017-05-06T10:14:34.278Z,33.78
2017-05-06T10:15:34.235Z,34.36
2017-05-06T10:16:34.239Z,33.95
2017-05-06T10:17:34.250Z,34.25
2017-05-06T10:18:33.943Z,34.07
2017-05-06T10:19:34.258Z,33.95
2017-05-06T10:20:34.267Z,34.15
2017-05-06T10:21:34.271Z,33.86
2017-05-06T10:22:34.278Z,33.67
2017-05-06T10:23:34.286Z,33.97
2017-05-06T10:24:33.984Z,33.95
2017-05-06T10:25:34.301Z,34.05
2017-05-06T10:26:34.309Z,34.34
2017-05-06T10:27:34.366Z,34.15
2017-05-06T10:28:34.371Z,33.95
2017-05-06T10:29:34.381Z,33.95
2017-05-06T10:30:34.336Z,34.44
2017-05-06T10:31:34.345Z,34.25
2017-05-06T10:32:34.038Z,34.63
2017-05-06T10:33:34.354Z,33.95
2017-05-06T10:34:34.103Z,34.54
2017-05-06T10:35:34.419Z,33.86
2017-05-06T10:36:34.375Z,33.95
2017-05-06T10:37:34.072Z,33.95
2017-05-06T10:38:34.417Z,34.05
2017-05-06T10:39:34.449Z,33.95
2017-05-06T10:40:34.402Z,34.05
2017-05-06T10:41:34.409Z,33.76
2017-05-06T10:42:34.108Z,34.15
2017-05-06T10:43:34.426Z,33.95
2017-05-06T10:44:34.170Z,33.95
2017-05-06T10:45:34.441Z,34.15
2017-05-06T10:46:34.446Z,34.44
2017-05-06T10:47:34.453Z,33.86
2017-05-06T10:48:34.458Z,34.15
2017-05-06T10:49:34.469Z,34.25
2017-05-06T10:50:34.164Z,33.86
2017-05-06T10:51:34.170Z,34.63
2017-05-06T10:52:34.224Z,34.25
2017-05-06T10:53:34.495Z,34.15
2017-05-06T10:54:34.499Z,34.15
2017-05-06T10:55:34.506Z,34.34
2017-05-06T10:56:34.517Z,34.54
2017-05-06T10:57:34.210Z,34.25
2017-05-06T10:58:34.525Z,34.25
2017-05-06T10:59:34.274Z,34.44
2017-05-06T11:00:34.589Z,34.54
2017-05-06T11:01:34.552Z,34.44
2017-05-06T11:02:34.555Z,34.15
2017-05-06T11:03:34.610Z,34.25
2017-05-06T11:04:34.567Z,34.63
2017-05-06T11:05:34.581Z,34.54
2017-05-06T11:06:34.581Z,34.63
2017-05-06T11:07:34.587Z,34.44
2017-05-06T11:08:34.599Z,34.92
2017-05-06T11:09:34.602Z,34.83
2017-05-06T11:10:34.611Z,34.73
2017-05-06T11:11:34.615Z,34.83
2017-05-06T11:12:34.623Z,35.02
2017-05-06T11:13:34.681Z,34.62
2017-05-06T11:14:34.685Z,34.73
2017-05-06T11:15:34.693Z,35
2017-05-06T11:16:34.340Z,34.71
2017-05-06T11:17:34.656Z,34.83
2017-05-06T11:18:34.354Z,34.62
2017-05-06T11:19:34.672Z,34.71
2017-05-06T11:20:34.365Z,34.71
2017-05-06T11:21:34.737Z,34.81
2017-05-06T11:22:34.690Z,34.73
2017-05-06T11:23:34.388Z,34.81
2017-05-06T11:24:34.397Z,35.1
2017-05-06T11:25:34.712Z,34.81
2017-05-06T11:26:34.771Z,35.29
2017-05-06T11:27:34.725Z,35
2017-05-06T11:28:34.734Z,35.1
2017-05-06T11:29:34.464Z,35.2
2017-05-06T11:30:34.749Z,35.1
2017-05-06T11:31:34.753Z,35.1
2017-05-06T11:32:34.497Z,35
2017-05-06T11:33:34.770Z,35.2
2017-05-06T11:34:34.871Z,35.2
2017-05-06T11:35:34.781Z,35.1
2017-05-06T11:36:34.788Z,35
2017-05-06T11:37:34.792Z,35.1
2017-05-06T11:38:34.493Z,35
2017-05-06T11:39:34.806Z,35
2017-05-06T11:40:34.865Z,35.2
2017-05-06T11:41:34.822Z,35.1
2017-05-06T11:42:34.829Z,35.2
2017-05-06T11:43:34.838Z,35.1
2017-05-06T11:44:34.890Z,35.1
2017-05-06T11:45:34.537Z,35.29
2017-05-06T11:46:34.870Z,35.2
2017-05-06T11:47:34.863Z,35.1
2017-05-06T11:48:34.868Z,35
2017-05-06T11:49:34.877Z,35.21
2017-05-06T11:50:34.624Z,35.12
2017-05-06T11:51:34.887Z,35.2
2017-05-06T11:52:34.947Z,35.49
2017-05-06T11:53:34.930Z,35.49
2017-05-06T11:54:34.909Z,35.78
2017-05-06T11:55:34.915Z,35.58
2017-05-06T11:56:34.923Z,36.07
2017-05-06T11:57:34.621Z,35.97
2017-05-06T11:58:35.023Z,36.55
2017-05-06T11:59:34.945Z,35.78
2017-05-06T12:00:34.949Z,36.07
2017-05-06T12:01:34.985Z,35.78
2017-05-06T12:02:34.989Z,35.97
2017-05-06T12:03:34.660Z,35.49
2017-05-06T12:04:34.977Z,36.26
2017-05-06T12:05:34.983Z,36.26
2017-05-06T12:06:34.991Z,36.34
2017-05-06T12:07:34.999Z,36.15
2017-05-06T12:08:35.004Z,36.07
2017-05-06T12:09:35.010Z,36.05
2017-05-06T12:10:35.020Z,36.05
2017-05-06T12:11:35.076Z,35.57
2017-05-06T12:12:34.721Z,36.24
2017-05-06T12:13:35.091Z,35.57
2017-05-06T12:14:35.045Z,35.49
2017-05-06T12:15:35.053Z,36.16
2017-05-06T12:16:35.111Z,35.86
2017-05-06T12:17:35.119Z,36.24
2017-05-06T12:18:35.072Z,35.88
2017-05-06T12:19:35.132Z,36.16
2017-05-06T12:20:35.136Z,35.78
2017-05-06T12:21:35.097Z,35.76
2017-05-06T12:22:35.098Z,36.16
2017-05-06T12:23:35.109Z,35.68
2017-05-06T12:24:34.802Z,36.07
2017-05-06T12:25:35.118Z,36.07
2017-05-06T12:26:35.125Z,35.76
2017-05-06T12:27:35.167Z,36.07
2017-05-06T12:28:35.140Z,35.66
2017-05-06T12:29:35.257Z,36.07
2017-05-06T12:30:35.203Z,35.57
2017-05-06T12:31:35.162Z,36.05
2017-05-06T12:32:35.167Z,36.16
2017-05-06T12:33:35.173Z,35.86
2017-05-06T12:34:34.870Z,35.97
2017-05-06T12:35:35.192Z,36.05
2017-05-06T12:36:34.882Z,35.97
2017-05-06T12:37:34.892Z,36.44
2017-05-06T12:38:35.269Z,35.86
2017-05-06T12:39:35.214Z,35.95
2017-05-06T12:40:35.269Z,35.97
2017-05-06T12:41:35.226Z,36.16
2017-05-06T12:42:34.923Z,35.86
2017-05-06T12:43:35.240Z,36.05
2017-05-06T12:44:35.296Z,35.95
2017-05-06T12:45:35.254Z,35.95
2017-05-06T12:46:35.259Z,36.36
2017-05-06T12:47:35.268Z,36.44
2017-05-06T12:48:35.271Z,36.34
2017-05-06T12:49:35.282Z,36.44
2017-05-06T12:50:35.288Z,36.34
2017-05-06T12:51:35.336Z,36.44
2017-05-06T12:52:35.299Z,36.53
2017-05-06T12:53:35.305Z,36.44
2017-05-06T12:54:35.364Z,36.44
2017-05-06T12:55:35.319Z,36.44